createdAt,value
2022-11-10T00:00:47.107Z,64.13
2022-11-10T00:03:33.646Z,58.88
2022-11-10T00:06:19.581Z,59.08
2022-11-10T00:09:06.267Z,62.00
2022-11-10T00:11:52.346Z,65.78
2022-11-10T00:14:56.773Z,63.58
2022-11-10T00:17:43.432Z,65.50
2022-11-10T00:20:30.060Z,67.63
2022-11-10T00:23:15.783Z,63.88
2022-11-10T00:26:01.501Z,73.05
2022-11-10T00:28:47.510Z,64.38
2022-11-10T00:31:33.304Z,60.95
2022-11-10T00:34:19.094Z,66.65
2022-11-10T00:37:04.857Z,65.05
2022-11-10T00:39:50.448Z,61.45
2022-11-10T00:42:36.586Z,60.28
2022-11-10T00:45:22.435Z,57.03
2022-11-10T00:48:08.216Z,56.95
2022-11-10T00:50:54.033Z,56.70
2022-11-10T00:53:39.689Z,54.05
2022-11-10T00:56:26.288Z,52.80
2022-11-10T00:59:12.274Z,64.50
2022-11-10T01:01:58.027Z,60.33
2022-11-10T01:04:43.951Z,61.33
2022-11-10T01:07:29.875Z,68.97
2022-11-10T01:10:16.175Z,70.95
2022-11-10T01:13:02.373Z,75.43
2022-11-10T01:15:48.095Z,75.65
2022-11-10T01:18:35.291Z,80.82
2022-11-10T01:21:22.330Z,85.70
2022-11-10T01:24:08.084Z,65.23
2022-11-10T01:26:54.068Z,79.55
2022-11-10T01:29:39.763Z,70.18
2022-11-10T01:32:25.794Z,70.68
2022-11-10T01:35:11.920Z,74.40
2022-11-10T01:37:58.678Z,69.90
2022-11-10T01:40:44.755Z,63.97
2022-11-10T01:43:31.737Z,69.28
2022-11-10T01:46:17.476Z,69.13
2022-11-10T01:49:04.526Z,77.63
2022-11-10T01:52:07.916Z,71.88
2022-11-10T01:54:53.922Z,67.82
2022-11-10T01:57:41.837Z,73.18
2022-11-10T02:00:27.903Z,87.53
2022-11-10T02:03:19.670Z,79.28
2022-11-10T02:06:07.767Z,78.63
2022-11-10T02:08:55.743Z,77.33
2022-11-10T02:11:44.059Z,95.85
2022-11-10T02:14:29.774Z,79.50
2022-11-10T02:17:16.095Z,90.75
2022-11-10T02:20:05.983Z,98.50
2022-11-10T02:22:51.870Z,95.57
2022-11-10T02:25:37.781Z,99.97
2022-11-10T02:28:25.427Z,100.65
2022-11-10T02:31:11.320Z,109.85
2022-11-10T02:33:57.184Z,102.88
2022-11-10T02:36:42.994Z,100.93
2022-11-10T02:39:28.839Z,122.18
2022-11-10T02:42:14.916Z,101.65
2022-11-10T02:45:00.864Z,114.93
2022-11-10T02:47:46.495Z,109.50
2022-11-10T02:50:32.265Z,103.88
2022-11-10T02:53:18.033Z,104.67
2022-11-10T02:56:04.017Z,107.72
2022-11-10T02:58:49.823Z,111.00
2022-11-10T03:01:35.380Z,113.40
2022-11-10T03:04:21.244Z,117.30
2022-11-10T03:07:07.260Z,110.82
2022-11-10T03:09:53.116Z,86.20
2022-11-10T03:12:38.813Z,95.78
2022-11-10T03:15:25.259Z,100.28
2022-11-10T03:18:11.234Z,78.35
2022-11-10T03:20:57.377Z,77.47
2022-11-10T03:23:43.045Z,67.65
2022-11-10T03:26:28.908Z,69.80
2022-11-10T03:29:14.912Z,72.55
2022-11-10T03:32:00.851Z,78.50
2022-11-10T03:34:46.660Z,84.55
2022-11-10T03:37:32.287Z,67.68
2022-11-10T03:40:18.144Z,74.82
2022-11-10T03:43:04.253Z,75.93
2022-11-10T03:45:50.170Z,74.45
2022-11-10T03:48:35.976Z,72.75
2022-11-10T03:51:22.550Z,92.70
2022-11-10T03:54:08.296Z,99.95
2022-11-10T03:56:54.677Z,80.05
2022-11-10T03:59:40.668Z,88.15
2022-11-10T04:02:26.570Z,80.45
2022-11-10T04:05:31.520Z,104.57
2022-11-10T04:08:36.474Z,74.35
2022-11-10T04:11:41.062Z,82.15
2022-11-10T04:14:45.740Z,81.32
2022-11-10T04:17:31.880Z,74.28
2022-11-10T04:20:17.916Z,76.13
2022-11-10T04:23:22.757Z,78.50
2022-11-10T04:26:29.755Z,92.72
2022-11-10T04:29:17.865Z,98.40
2022-11-10T04:32:03.752Z,89.57
2022-11-10T04:34:49.499Z,104.20
2022-11-10T04:37:35.249Z,94.50
2022-11-10T04:40:21.303Z,103.50
2022-11-10T04:43:07.144Z,102.13
2022-11-10T04:45:53.449Z,129.15
2022-11-10T04:48:39.376Z,122.07
2022-11-10T04:51:32.302Z,106.72
2022-11-10T04:54:18.168Z,124.20
2022-11-10T04:57:03.979Z,109.47
2022-11-10T04:59:49.751Z,109.22
2022-11-10T05:02:39.386Z,158.68
2022-11-10T05:05:25.739Z,103.78
2022-11-10T05:08:11.978Z,93.80
2022-11-10T05:10:57.596Z,99.75
2022-11-10T05:13:45.316Z,105.20
2022-11-10T05:16:31.249Z,93.07
2022-11-10T05:19:17.278Z,98.03
2022-11-10T05:22:03.292Z,104.13
2022-11-10T05:24:49.368Z,98.45
2022-11-10T05:27:35.273Z,105.60
2022-11-10T05:30:20.975Z,110.78
2022-11-10T05:33:07.153Z,138.20
2022-11-10T05:35:53.133Z,105.55
2022-11-10T05:38:43.491Z,92.63
2022-11-10T05:41:29.822Z,106.30
2022-11-10T05:44:15.824Z,98.30
2022-11-10T05:47:01.957Z,106.22
2022-11-10T05:49:47.454Z,151.40
2022-11-10T05:52:33.747Z,119.07
2022-11-10T05:55:24.342Z,110.13
2022-11-10T05:58:09.999Z,132.32
2022-11-10T06:00:56.358Z,121.53
2022-11-10T06:03:42.218Z,137.68
2022-11-10T06:06:28.112Z,152.68
2022-11-10T06:09:13.923Z,98.78
2022-11-10T06:12:00.096Z,116.13
2022-11-10T06:14:45.917Z,111.40
2022-11-10T06:17:31.877Z,128.95
2022-11-10T06:20:18.477Z,109.03
2022-11-10T06:23:12.199Z,116.68
2022-11-10T06:25:58.132Z,122.03
2022-11-10T06:28:43.960Z,122.65
2022-11-10T06:31:29.885Z,113.68
2022-11-10T06:34:15.764Z,123.35
2022-11-10T06:37:01.740Z,120.30
2022-11-10T06:39:47.789Z,126.60
2022-11-10T06:42:34.596Z,148.23
2022-11-10T06:45:20.572Z,134.57
2022-11-10T06:48:09.670Z,133.20
2022-11-10T06:50:55.390Z,144.90
2022-11-10T06:53:42.284Z,144.20
2022-11-10T06:56:28.219Z,147.70
2022-11-10T06:59:14.038Z,237.73
2022-11-10T07:01:59.802Z,207.17
2022-11-10T07:04:45.847Z,163.07
2022-11-10T07:07:31.660Z,119.28
2022-11-10T07:10:17.492Z,100.15
2022-11-10T07:13:04.764Z,90.05
2022-11-10T07:15:50.633Z,85.72
2022-11-10T07:18:36.795Z,93.15
2022-11-10T09:42:34.141Z,47.40
2022-11-10T09:45:20.035Z,47.22
2022-11-10T10:03:02.468Z,47.17
2022-11-10T10:05:48.609Z,47.25
2022-11-10T10:08:54.513Z,44.70
2022-11-10T10:12:02.400Z,59.28
2022-11-10T10:15:09.564Z,48.15
2022-11-10T10:18:07.761Z,47.25
2022-11-10T10:20:59.385Z,44.72
2022-11-10T10:26:59.917Z,45.03
2022-11-10T10:29:49.215Z,42.30
2022-11-10T10:32:35.407Z,42.67
2022-11-10T10:35:21.482Z,47.33
2022-11-10T10:38:18.754Z,44.38
2022-11-10T10:41:18.298Z,41.97
2022-11-10T10:44:13.176Z,42.85
2022-11-10T10:47:01.197Z,45.38
2022-11-10T10:49:47.089Z,42.22
2022-11-10T10:52:33.122Z,44.55
2022-11-10T10:55:19.303Z,42.85
2022-11-10T10:58:27.264Z,41.87
2022-11-10T11:01:16.024Z,40.30
2022-11-10T11:04:25.112Z,42.90
2022-11-10T11:07:23.027Z,44.60
2022-11-10T11:10:21.124Z,44.15
2022-11-10T11:13:23.668Z,45.60
2022-11-10T11:16:12.334Z,44.92
2022-11-10T11:18:58.883Z,44.30
2022-11-10T11:22:05.044Z,42.65
2022-11-10T11:25:19.476Z,42.35
2022-11-10T11:28:10.734Z,44.22
2022-11-10T11:30:56.229Z,47.13
2022-11-10T11:33:51.078Z,46.88
2022-11-10T11:36:48.864Z,43.75
2022-11-10T11:39:48.492Z,40.70
2022-11-10T11:42:50.566Z,41.22
2022-11-10T11:46:00.854Z,42.40
2022-11-10T11:49:01.485Z,39.70
2022-11-10T11:51:47.339Z,40.42
2022-11-10T11:55:02.259Z,38.30
2022-11-10T11:58:05.502Z,37.30
2022-11-10T12:01:03.209Z,38.03
2022-11-10T12:04:09.956Z,36.40
2022-11-10T12:07:14.496Z,42.15
2022-11-10T12:10:29.470Z,46.00
2022-11-10T12:13:24.441Z,44.03
2022-11-10T12:16:23.114Z,200.35
2022-11-10T12:19:24.251Z,52.75
2022-11-10T12:22:22.662Z,64.70
2022-11-10T12:25:27.293Z,45.50
2022-11-10T12:28:23.995Z,51.42
2022-11-10T12:31:18.022Z,47.95
2022-11-10T12:34:14.617Z,46.35
2022-11-10T12:37:05.085Z,46.60
2022-11-10T12:39:57.555Z,47.38
2022-11-10T12:42:55.816Z,48.63
2022-11-10T12:45:49.056Z,48.75
2022-11-10T12:48:47.152Z,51.22
2022-11-10T12:51:45.952Z,51.80
2022-11-10T12:54:34.730Z,53.70
2022-11-10T12:57:25.379Z,49.53
2022-11-10T13:00:27.947Z,47.75
2022-11-10T13:03:33.384Z,48.00
2022-11-10T13:06:35.725Z,48.67
2022-11-10T13:09:28.008Z,61.40
2022-11-10T13:12:22.337Z,50.72
2022-11-10T13:15:38.975Z,52.03
2022-11-10T13:18:44.843Z,52.40
2022-11-10T13:21:52.764Z,49.67
2022-11-10T13:24:40.756Z,48.05
2022-11-10T13:27:33.047Z,49.53
2022-11-10T13:30:41.909Z,51.13
2022-11-10T13:33:35.354Z,51.40
2022-11-10T13:36:42.047Z,50.35
2022-11-10T13:39:33.353Z,48.67
2022-11-10T13:42:23.879Z,51.58
2022-11-10T13:45:34.076Z,50.30
2022-11-10T13:48:36.974Z,53.42
2022-11-10T13:51:32.360Z,59.70
2022-11-10T13:54:44.152Z,58.60
2022-11-10T13:57:35.078Z,53.42
2022-11-10T14:00:20.814Z,53.45
2022-11-10T14:03:07.992Z,52.77
2022-11-10T14:06:05.016Z,58.55
2022-11-10T14:09:16.337Z,58.10
2022-11-10T14:12:15.214Z,57.80
2022-11-10T14:15:06.957Z,53.55
2022-11-10T14:17:55.918Z,57.15
2022-11-10T14:20:43.873Z,56.85
2022-11-10T14:23:35.756Z,56.00
2022-11-10T14:26:50.992Z,55.95
2022-11-10T14:29:39.280Z,76.72
2022-11-10T14:32:26.504Z,67.20
2022-11-10T14:35:22.347Z,67.60
2022-11-10T14:38:20.910Z,62.55
2022-11-10T14:41:16.372Z,56.60
2022-11-10T14:44:05.429Z,62.75
2022-11-10T14:46:51.656Z,59.78
2022-11-10T14:49:37.626Z,137.02
2022-11-10T14:52:23.773Z,64.67
2022-11-10T14:55:15.908Z,63.03
2022-11-10T14:58:23.232Z,60.08
2022-11-10T15:01:51.280Z,57.90
2022-11-10T15:04:37.466Z,55.67
2022-11-10T15:07:23.268Z,56.73
2022-11-10T15:10:24.280Z,61.78
2022-11-10T15:13:12.796Z,62.20
2022-11-10T15:16:21.559Z,56.05
2022-11-10T15:19:28.378Z,55.55
2022-11-10T15:22:33.799Z,53.50
2022-11-10T15:25:22.647Z,55.85
2022-11-10T15:28:14.257Z,59.45
2022-11-10T15:31:03.614Z,57.40
2022-11-10T15:33:53.308Z,62.83
2022-11-10T15:36:41.952Z,61.53
2022-11-10T15:39:28.794Z,57.92
2022-11-10T15:42:18.447Z,56.17
2022-11-10T15:45:05.001Z,60.80
2022-11-10T15:47:51.305Z,62.05
2022-11-10T15:50:37.486Z,63.97
2022-11-10T15:53:30.572Z,65.50
2022-11-10T15:56:18.729Z,63.72
2022-11-10T15:59:04.698Z,70.00
2022-11-10T16:01:51.241Z,73.80
2022-11-10T16:04:37.245Z,70.93
2022-11-10T16:07:23.567Z,74.72
2022-11-10T16:10:09.367Z,80.00
2022-11-10T16:12:55.183Z,83.20
2022-11-10T16:15:42.046Z,75.72
2022-11-10T16:21:16.844Z,81.10
2022-11-10T16:24:03.684Z,82.57
2022-11-10T16:26:49.825Z,86.95
2022-11-10T16:29:37.048Z,84.78
2022-11-10T16:32:23.617Z,85.18
2022-11-10T16:35:15.769Z,90.00
2022-11-10T16:38:20.278Z,87.18
2022-11-10T16:41:12.631Z,83.38
2022-11-10T16:43:58.257Z,80.80
2022-11-10T16:46:48.042Z,84.40
2022-11-10T16:49:35.684Z,84.55
2022-11-10T16:52:22.572Z,89.90
2022-11-10T16:55:12.357Z,81.18
2022-11-10T16:57:59.370Z,84.45
2022-11-10T17:00:48.174Z,84.60
2022-11-10T17:03:43.047Z,92.47
2022-11-10T17:06:31.005Z,87.80
2022-11-10T17:09:23.256Z,84.55
2022-11-10T17:12:13.492Z,83.68
2022-11-10T17:14:59.529Z,84.25
2022-11-10T17:17:48.356Z,84.50
2022-11-10T17:20:37.883Z,83.65
2022-11-10T17:23:26.283Z,84.07
2022-11-10T17:26:16.082Z,83.88
2022-11-10T17:29:02.107Z,85.18
2022-11-10T17:31:52.860Z,84.75
2022-11-10T17:34:38.957Z,83.43
2022-11-10T17:37:24.633Z,83.85
2022-11-10T17:40:21.018Z,93.50
2022-11-10T17:43:13.717Z,83.60
2022-11-10T17:45:59.949Z,83.93
2022-11-10T17:48:47.882Z,83.95
2022-11-10T17:51:35.843Z,87.00
2022-11-10T17:54:22.366Z,77.75
2022-11-10T17:57:10.235Z,82.95
2022-11-10T17:59:56.997Z,83.32
2022-11-10T18:02:45.071Z,90.00
2022-11-10T18:05:31.447Z,94.03
2022-11-10T18:08:17.970Z,86.18
2022-11-10T18:11:04.520Z,90.03
2022-11-10T18:13:50.485Z,87.63
2022-11-10T18:16:36.132Z,89.05
2022-11-10T18:19:22.536Z,85.53
2022-11-10T18:22:08.456Z,85.60
2022-11-10T18:24:54.182Z,88.03
2022-11-10T18:27:39.928Z,80.35
2022-11-10T18:30:27.262Z,88.78
2022-11-10T18:33:14.920Z,78.93
2022-11-10T18:36:02.004Z,87.78
2022-11-10T18:41:49.028Z,84.00
2022-11-10T18:44:38.601Z,84.78
2022-11-10T18:47:24.456Z,79.93
2022-11-10T18:50:10.663Z,89.45
2022-11-10T18:52:56.949Z,82.90
2022-11-10T18:55:45.597Z,87.00
2022-11-10T18:58:31.493Z,87.22
2022-11-10T19:01:18.339Z,77.63
2022-11-10T19:04:04.503Z,81.90
2022-11-10T19:06:50.291Z,81.32
2022-11-10T19:09:36.573Z,80.78
2022-11-10T19:12:26.537Z,76.45
2022-11-10T19:15:12.847Z,74.00
2022-11-10T19:17:59.645Z,74.07
2022-11-10T19:23:31.848Z,66.18
2022-11-10T19:26:22.875Z,71.30
2022-11-10T19:29:08.799Z,72.50
2022-11-10T19:31:54.484Z,75.55
2022-11-10T19:34:40.559Z,70.22
2022-11-10T19:37:29.810Z,79.18
2022-11-10T19:40:20.044Z,74.95
2022-11-10T19:43:06.874Z,74.03
2022-11-10T19:45:52.759Z,73.82
2022-11-10T19:48:39.001Z,75.30
2022-11-10T19:51:28.542Z,84.65
2022-11-10T19:54:16.954Z,82.07
2022-11-10T19:57:03.470Z,73.90
2022-11-10T19:59:49.584Z,84.78
2022-11-10T20:02:35.561Z,85.55
2022-11-10T20:05:22.231Z,83.60
2022-11-10T20:08:13.463Z,82.55
2022-11-10T20:11:20.137Z,79.45
2022-11-10T20:14:06.971Z,82.05
2022-11-10T20:16:53.518Z,77.78
2022-11-10T20:19:41.440Z,77.57
2022-11-10T20:22:28.572Z,78.85
2022-11-10T20:25:15.673Z,71.13
2022-11-10T20:28:06.134Z,77.85
2022-11-10T20:30:56.983Z,71.25
2022-11-10T20:33:45.173Z,75.93
2022-11-10T20:36:34.128Z,72.70
2022-11-10T20:39:22.411Z,69.63
2022-11-10T20:42:11.863Z,64.07
2022-11-10T20:44:58.856Z,65.45
2022-11-10T20:47:47.780Z,60.90
2022-11-10T20:50:33.960Z,62.58
2022-11-10T20:53:19.919Z,59.65
2022-11-10T20:56:07.694Z,52.45
2022-11-10T20:58:53.882Z,56.80
2022-11-10T21:01:40.224Z,52.33
2022-11-10T21:04:26.526Z,51.83
2022-11-10T21:07:12.426Z,51.30
2022-11-10T21:09:58.729Z,57.75
2022-11-10T21:12:51.326Z,66.15
2022-11-10T21:15:39.510Z,62.33
2022-11-10T21:18:29.459Z,61.72
2022-11-10T21:21:22.962Z,71.15
